Time;durP1;ratioP1;P1;durP2;ratioP2;P2;SDS_P1;SDS_P2;PMS_P1;PMS_P2;Temp;Humidity;BMP_temperature;BMP_pressure;BME280_temperature;BME280_humidity;BME280_pressure;Samples;Min_cycle;Max_cycle;Signal;HPM_P1;HPM_P2
2023/08/30 00:04:31;;;;;;;13.97;13.00;;;16.30;99.90;;;;;;10483383;28;20198;-78
2023/08/30 00:09:35;;;;;;;16.00;12.00;;;16.40;99.90;;;;;;10476649;28;20217;-77
2023/08/30 00:14:38;;;;;;;13.23;12.37;;;16.40;99.90;;;;;;10460129;28;20217;-78
2023/08/30 00:19:40;;;;;;;13.03;12.23;;;16.40;99.90;;;;;;10473952;28;20198;-76
2023/08/30 00:24:43;;;;;;;12.90;12.10;;;16.40;99.90;;;;;;10477147;28;20221;-78
2023/08/30 00:29:45;;;;;;;11.23;10.53;;;16.40;99.90;;;;;;10498145;28;20810;-78
2023/08/30 00:34:47;;;;;;;12.33;11.33;;;16.40;99.90;;;;;;10461895;28;20659;-76
2023/08/30 00:39:50;;;;;;;11.03;10.33;;;16.40;99.90;;;;;;10445375;28;20206;-78
2023/08/30 00:44:53;;;;;;;11.80;11.00;;;16.40;99.90;;;;;;10435239;28;20226;-78
2023/08/30 00:49:55;;;;;;;12.10;11.20;;;16.40;99.90;;;;;;10456756;28;20730;-77
2023/08/30 00:54:59;;;;;;;12.73;11.83;;;16.40;99.90;;;;;;10426035;28;20236;-78
2023/08/30 01:00:03;;;;;;;11.83;11.03;;;16.40;99.90;;;;;;10468032;28;20205;-76
2023/08/30 01:05:05;;;;;;;12.13;11.30;;;16.30;99.90;;;;;;10479267;28;20246;-78
2023/08/30 01:10:10;;;;;;;12.37;11.50;;;16.30;99.90;;;;;;10438876;28;20237;-77
2023/08/30 01:15:16;;;;;;;13.77;12.67;;;16.30;99.90;;;;;;10453056;28;20236;-76
2023/08/30 01:20:22;;;;;;;13.60;12.70;;;16.30;99.90;;;;;;10450272;28;20205;-77
2023/08/30 01:25:39;;;;;;;13.53;12.43;;;16.30;99.90;;;;;;10438595;28;20229;-78
2023/08/30 01:30:43;;;;;;;12.70;11.87;;;16.30;99.90;;;;;;10463760;28;20272;-77
2023/08/30 01:35:46;;;;;;;11.97;11.13;;;16.30;99.90;;;;;;10477657;28;20275;-77
2023/08/30 01:40:49;;;;;;;13.60;12.47;;;16.20;99.90;;;;;;10492298;28;20206;-79
2023/08/30 01:45:53;;;;;;;12.80;12.00;;;16.20;99.90;;;;;;10477688;28;20253;-78
2023/08/30 01:50:58;;;;;;;12.83;11.90;;;16.20;99.90;;;;;;10456147;28;20711;-77
2023/08/30 01:56:00;;;;;;;12.30;11.60;;;16.10;99.90;;;;;;10477412;28;20219;-78
2023/08/30 02:01:04;;;;;;;13.40;12.50;;;16.10;99.90;;;;;;10463392;28;20210;-77
2023/08/30 02:06:09;;;;;;;12.27;11.57;;;16.00;99.90;;;;;;10454078;28;20213;-77
2023/08/30 02:11:18;;;;;;;12.20;11.40;;;16.00;99.90;;;;;;10470525;28;20604;-78
2023/08/30 02:16:23;;;;;;;11.30;10.60;;;16.00;99.90;;;;;;10472297;28;20247;-78
2023/08/30 02:21:26;;;;;;;11.30;10.50;;;15.90;99.90;;;;;;10455207;28;20208;-77
2023/08/30 02:26:28;;;;;;;10.80;10.10;;;15.90;99.90;;;;;;10458518;28;20230;-78
2023/08/30 02:31:32;;;;;;;10.67;9.80;;;15.90;99.90;;;;;;10472176;28;20292;-78
2023/08/30 02:36:34;;;;;;;10.73;9.90;;;15.90;99.90;;;;;;10463674;28;20276;-78
2023/08/30 02:41:36;;;;;;;10.93;10.33;;;15.90;99.90;;;;;;10432154;28;20210;-77
2023/08/30 02:46:39;;;;;;;11.07;10.37;;;15.90;99.90;;;;;;10470860;28;20791;-78
2023/08/30 02:51:41;;;;;;;10.53;9.80;;;15.90;99.90;;;;;;10460992;28;20222;-77
2023/08/30 02:56:44;;;;;;;10.97;10.20;;;15.90;99.90;;;;;;10452310;28;20708;-79
2023/08/30 03:01:48;;;;;;;11.33;10.47;;;15.80;99.90;;;;;;10470260;28;20673;-78
2023/08/30 03:06:53;;;;;;;12.40;11.70;;;15.80;99.90;;;;;;10448104;28;20248;-78
2023/08/30 03:11:55;;;;;;;12.43;11.53;;;15.80;99.90;;;;;;10442131;28;20248;-77
2023/08/30 03:16:59;;;;;;;11.60;10.90;;;15.80;99.90;;;;;;10471138;28;20324;-78
2023/08/30 03:22:02;;;;;;;11.40;10.53;;;15.70;99.90;;;;;;10429093;28;20258;-78
2023/08/30 03:27:04;;;;;;;12.87;12.07;;;15.70;99.90;;;;;;10483442;28;20247;-77
2023/08/30 03:32:08;;;;;;;13.27;12.27;;;15.70;99.90;;;;;;10486261;28;20264;-78
2023/08/30 03:37:10;;;;;;;12.77;11.87;;;15.70;99.90;;;;;;10456909;28;20247;-78
2023/08/30 03:42:12;;;;;;;13.63;12.73;;;15.70;99.90;;;;;;10462761;28;20668;-77
2023/08/30 03:47:16;;;;;;;12.10;11.30;;;15.70;99.90;;;;;;10449957;28;20730;-78
2023/08/30 03:52:18;;;;;;;12.27;11.33;;;15.80;99.90;;;;;;10467895;28;20202;-77
2023/08/30 03:57:20;;;;;;;12.30;11.33;;;15.80;99.90;;;;;;10453387;28;20770;-78
2023/08/30 04:02:24;;;;;;;12.53;11.53;;;15.80;99.90;;;;;;10497116;28;20201;-78
2023/08/30 04:07:26;;;;;;;11.17;10.47;;;15.80;99.90;;;;;;10473160;28;20709;-78
2023/08/30 04:12:28;;;;;;;12.70;11.70;;;15.80;99.90;;;;;;10466210;28;20214;-78
2023/08/30 04:17:32;;;;;;;11.90;11.07;;;15.80;99.90;;;;;;10451301;28;20221;-76
2023/08/30 04:22:35;;;;;;;12.07;11.20;;;15.80;99.90;;;;;;10465361;28;20202;-77
2023/08/30 04:27:37;;;;;;;13.23;12.33;;;15.80;99.90;;;;;;10447784;28;20225;-77
2023/08/30 04:32:41;;;;;;;13.27;12.37;;;15.80;99.90;;;;;;10472814;28;20218;-77
2023/08/30 04:37:43;;;;;;;12.77;11.80;;;15.80;99.90;;;;;;10445312;28;20218;-78
2023/08/30 04:42:45;;;;;;;12.57;11.60;;;15.80;99.90;;;;;;10420630;28;20212;-78
2023/08/30 04:47:49;;;;;;;12.70;11.73;;;15.90;99.90;;;;;;10488666;28;20252;-77
2023/08/30 04:52:51;;;;;;;12.90;12.00;;;15.90;99.90;;;;;;10446284;28;20217;-76
2023/08/30 04:57:53;;;;;;;13.43;12.53;;;15.90;99.90;;;;;;10458969;28;20221;-77
2023/08/30 05:02:57;;;;;;;13.30;12.33;;;16.00;99.90;;;;;;10471127;28;20316;-77
2023/08/30 05:07:59;;;;;;;14.10;12.80;;;16.00;99.90;;;;;;10460335;28;20228;-77
2023/08/30 05:13:01;;;;;;;12.57;11.67;;;16.00;99.90;;;;;;10441598;28;20589;-76
2023/08/30 05:18:05;;;;;;;14.10;12.90;;;16.00;99.90;;;;;;10485932;28;20251;-77
2023/08/30 05:23:08;;;;;;;12.57;11.77;;;16.10;99.90;;;;;;10465915;28;20194;-77
2023/08/30 05:28:18;;;;;;;12.03;11.23;;;16.10;99.90;;;;;;10485879;22;20481;-78
2023/08/30 05:33:28;;;;;;;12.50;11.70;;;16.20;99.90;;;;;;10538904;28;20231;-79
2023/08/30 05:38:53;;;;;;;12.60;11.63;;;16.20;99.90;;;;;;10530003;28;20230;-79
2023/08/30 05:44:23;;;;;;;;;;;;;;;;;;;;;
2023/08/30 05:49:33;;;;;;;13.80;12.80;;;16.40;99.90;;;;;;10539807;28;20721;-79
2023/08/30 05:54:48;;;;;;;14.10;12.80;;;16.50;99.90;;;;;;10540129;28;20220;-80
2023/08/30 05:59:56;;;;;;;14.40;13.30;;;16.50;99.90;;;;;;10540069;28;20532;-79
2023/08/30 06:05:02;;;;;;;13.60;12.60;;;16.60;99.90;;;;;;10540192;28;20200;-79
2023/08/30 06:10:05;;;;;;;12.30;11.20;;;16.70;99.90;;;;;;10541168;28;20323;-79
2023/08/30 06:15:08;;;;;;;12.27;11.37;;;16.80;99.90;;;;;;10537883;28;20248;-80
2023/08/30 06:20:12;;;;;;;12.20;11.30;;;16.90;99.90;;;;;;10539533;28;20730;-79
2023/08/30 06:25:14;;;;;;;11.40;10.50;;;16.90;99.90;;;;;;10537803;28;20216;-79
2023/08/30 06:30:16;;;;;;;11.07;9.97;;;16.90;99.90;;;;;;10540504;28;20228;-79
2023/08/30 06:35:19;;;;;;;10.37;9.57;;;17.00;99.90;;;;;;10548393;28;20220;-80
2023/08/30 06:40:21;;;;;;;10.60;9.70;;;17.00;99.90;;;;;;10553749;28;20228;-79
2023/08/30 06:45:24;;;;;;;9.63;9.03;;;17.10;99.90;;;;;;10554087;28;20242;-80
2023/08/30 06:50:27;;;;;;;10.77;9.90;;;17.20;99.90;;;;;;10552291;28;20225;-79
2023/08/30 06:55:29;;;;;;;9.50;8.90;;;17.30;99.90;;;;;;10548351;28;20224;-79
2023/08/30 07:00:31;;;;;;;10.03;9.23;;;17.40;99.90;;;;;;10548504;28;20228;-79
2023/08/30 07:05:35;;;;;;;8.87;8.27;;;17.40;99.90;;;;;;10548830;28;20196;-79
2023/08/30 07:10:37;;;;;;;10.23;9.43;;;17.50;99.90;;;;;;10547804;28;20224;-79
2023/08/30 07:15:40;;;;;;;9.13;8.50;;;17.60;99.90;;;;;;10548218;28;20224;-79
2023/08/30 07:20:44;;;;;;;8.70;8.10;;;17.60;99.90;;;;;;10546453;28;20237;-79
2023/08/30 07:25:46;;;;;;;8.93;8.00;;;17.70;99.90;;;;;;10547874;28;20189;-80
2023/08/30 07:30:48;;;;;;;8.63;7.97;;;17.70;99.90;;;;;;10547243;28;20718;-79
2023/08/30 07:35:54;;;;;;;7.90;7.20;;;17.70;99.90;;;;;;10547365;28;21124;-80
2023/08/30 07:40:56;;;;;;;7.67;7.00;;;17.80;99.90;;;;;;10546635;28;20237;-78
2023/08/30 07:45:59;;;;;;;8.17;7.57;;;17.80;99.90;;;;;;10546525;28;20197;-80
2023/08/30 07:51:03;;;;;;;7.20;6.73;;;17.80;99.90;;;;;;10545073;28;20255;-80
2023/08/30 07:56:05;;;;;;;7.70;7.20;;;17.80;99.90;;;;;;10546847;28;20216;-80
2023/08/30 08:01:07;;;;;;;8.00;7.30;;;17.80;99.90;;;;;;10544418;28;20244;-80
2023/08/30 08:06:11;;;;;;;7.90;7.40;;;17.80;99.90;;;;;;10546136;28;20220;-80
2023/08/30 08:11:13;;;;;;;8.27;7.50;;;17.80;99.90;;;;;;10544082;28;20247;-76
2023/08/30 08:16:16;;;;;;;7.10;6.60;;;17.90;99.90;;;;;;10543724;28;20220;-79
2023/08/30 08:21:19;;;;;;;7.37;6.83;;;18.00;99.90;;;;;;10544559;28;20274;-80
2023/08/30 08:26:21;;;;;;;7.87;7.17;;;18.20;99.90;;;;;;10545838;28;20207;-80
2023/08/30 08:31:23;;;;;;;6.40;5.80;;;18.30;99.90;;;;;;10543140;28;20286;-80
2023/08/30 08:36:27;;;;;;;6.43;5.87;;;18.50;99.90;;;;;;10544501;28;20227;-80
2023/08/30 08:41:36;;;;;;;5.87;5.47;;;18.70;99.90;;;;;;10543848;28;20308;-79
2023/08/30 08:46:40;;;;;;;6.10;5.70;;;18.90;99.90;;;;;;10547173;28;20196;-80
2023/08/30 08:51:45;;;;;;;5.90;5.50;;;19.00;99.90;;;;;;10546273;28;20200;-80
2023/08/30 08:56:47;;;;;;;5.57;5.27;;;19.10;99.90;;;;;;10547144;28;20243;-80
2023/08/30 09:01:50;;;;;;;5.17;4.87;;;19.30;99.90;;;;;;10565119;28;20660;-80
2023/08/30 09:06:53;;;;;;;5.57;5.17;;;19.40;99.90;;;;;;10559671;28;20220;-80
2023/08/30 09:12:03;;;;;;;4.30;4.00;;;19.60;99.90;;;;;;10560046;28;20672;-79
2023/08/30 09:17:05;;;;;;;5.13;4.80;;;19.70;99.90;;;;;;10555609;28;20270;-80
2023/08/30 09:22:08;;;;;;;4.63;4.33;;;19.70;99.90;;;;;;10540024;28;20695;-80
2023/08/30 09:27:10;;;;;;;4.03;3.73;;;19.70;99.90;;;;;;10531420;28;20236;-80
2023/08/30 09:32:13;;;;;;;5.20;4.70;;;19.90;99.90;;;;;;10538707;28;20201;-80
2023/08/30 09:37:29;;;;;;;4.70;4.40;;;20.00;99.90;;;;;;10537473;28;20235;-80
2023/08/30 09:42:33;;;;;;;3.70;3.50;;;20.10;99.90;;;;;;10540502;28;20519;-80
2023/08/30 09:47:36;;;;;;;4.00;3.70;;;20.20;99.90;;;;;;10539882;28;20208;-80
2023/08/30 09:52:39;;;;;;;3.70;3.40;;;20.40;99.90;;;;;;10538758;28;20205;-80
2023/08/30 09:57:43;;;;;;;4.07;3.77;;;20.60;99.90;;;;;;10538105;28;20235;-79
2023/08/30 10:02:45;;;;;;;4.07;3.80;;;20.80;99.90;;;;;;10540635;28;20220;-80
2023/08/30 10:07:49;;;;;;;3.60;3.30;;;21.00;99.90;;;;;;10550904;28;20216;-80
2023/08/30 10:12:54;;;;;;;3.60;3.40;;;21.10;99.90;;;;;;10552049;28;20200;-79
2023/08/30 10:17:59;;;;;;;3.37;3.17;;;21.10;99.90;;;;;;10556050;28;20598;-80
2023/08/30 10:23:05;;;;;;;3.43;3.13;;;21.00;99.90;;;;;;10553738;28;20656;-80
2023/08/30 10:28:11;;;;;;;3.10;2.90;;;21.00;99.90;;;;;;10555164;28;20699;-80
2023/08/30 10:33:18;;;;;;;2.73;2.63;;;21.00;99.90;;;;;;10554363;28;20188;-80
2023/08/30 10:38:29;;;;;;;2.67;2.30;;;21.00;99.90;;;;;;10554970;28;20228;-80
2023/08/30 10:43:34;;;;;;;2.80;2.60;;;20.90;99.90;;;;;;10555751;28;20207;-81
2023/08/30 10:48:40;;;;;;;2.53;2.43;;;20.80;99.90;;;;;;10556294;28;20247;-81
2023/08/30 10:53:44;;;;;;;3.00;2.77;;;20.90;99.90;;;;;;10556861;28;20196;-80
2023/08/30 10:58:46;;;;;;;2.60;2.50;;;20.90;99.90;;;;;;10555114;28;20228;-80
2023/08/30 11:03:50;;;;;;;2.77;2.57;;;20.90;99.90;;;;;;10555213;28;20197;-80
2023/08/30 11:08:53;;;;;;;3.30;3.10;;;20.90;99.90;;;;;;10555839;28;20220;-80
2023/08/30 11:13:55;;;;;;;2.87;2.70;;;21.00;99.90;;;;;;10554709;28;20215;-80
2023/08/30 11:18:58;;;;;;;2.53;2.43;;;21.00;99.90;;;;;;10550625;28;20212;-80
2023/08/30 11:24:01;;;;;;;2.90;2.70;;;21.10;99.90;;;;;;10546355;28;20201;-80
2023/08/30 11:29:07;;;;;;;2.60;2.40;;;21.10;99.90;;;;;;10547956;22;20239;-76
2023/08/30 11:34:09;;;;;;;3.17;2.97;;;21.10;99.90;;;;;;10534537;28;20328;-77
2023/08/30 11:39:12;;;;;;;3.27;3.07;;;21.10;99.90;;;;;;10511944;28;20255;-77
2023/08/30 11:44:16;;;;;;;3.40;3.20;;;21.30;99.90;;;;;;10494986;28;20201;-77
2023/08/30 11:49:18;;;;;;;3.30;3.10;;;21.30;99.90;;;;;;10509289;28;20228;-76
2023/08/30 11:54:22;;;;;;;3.70;3.40;;;21.20;99.90;;;;;;10497972;28;20342;-76
2023/08/30 11:59:24;;;;;;;3.20;3.00;;;21.00;99.90;;;;;;10520686;28;20212;-76
2023/08/30 12:04:26;;;;;;;3.57;3.37;;;20.80;99.90;;;;;;10532033;28;20224;-76
2023/08/30 12:09:33;;;;;;;4.87;4.47;;;20.60;99.90;;;;;;10496950;28;20591;-77
2023/08/30 12:14:35;;;;;;;3.50;3.20;;;20.30;99.90;;;;;;10495277;28;20219;-77
2023/08/30 12:19:37;;;;;;;4.13;3.83;;;20.00;99.90;;;;;;10530193;28;20781;-78
2023/08/30 12:24:47;;;;;;;4.47;4.13;;;19.70;99.90;;;;;;10522885;28;20247;-77
2023/08/30 12:29:50;;;;;;;4.50;4.30;;;19.40;99.90;;;;;;10497191;28;20225;-77
2023/08/30 12:34:52;;;;;;;4.33;4.10;;;19.20;99.90;;;;;;10518309;28;20713;-77
2023/08/30 12:39:56;;;;;;;4.50;4.10;;;19.00;99.90;;;;;;10513169;28;20306;-77
2023/08/30 12:44:58;;;;;;;4.30;4.07;;;19.00;99.90;;;;;;10521800;28;20703;-77
2023/08/30 12:50:00;;;;;;;3.90;3.70;;;19.10;99.90;;;;;;10532012;28;20703;-77
2023/08/30 12:55:03;;;;;;;3.83;3.63;;;19.20;99.90;;;;;;10500508;28;20220;-77
2023/08/30 13:00:07;;;;;;;4.13;3.93;;;19.20;99.90;;;;;;10494342;28;20708;-77
2023/08/30 13:05:09;;;;;;;4.03;3.83;;;19.30;99.90;;;;;;10528728;28;20288;-77
2023/08/30 13:10:12;;;;;;;3.50;3.30;;;19.50;99.90;;;;;;10522432;28;20223;-77
2023/08/30 13:15:14;;;;;;;3.70;3.10;;;19.60;99.90;;;;;;10489498;28;20304;-77
2023/08/30 13:20:17;;;;;;;3.43;3.23;;;19.80;99.90;;;;;;10491697;28;20252;-76
2023/08/30 13:25:20;;;;;;;3.90;3.60;;;20.10;99.90;;;;;;10533791;28;20208;-77
2023/08/30 13:30:22;;;;;;;2.83;2.63;;;20.30;99.90;;;;;;10521910;28;20311;-77
2023/08/30 13:35:24;;;;;;;3.47;3.27;;;20.50;99.90;;;;;;10490808;28;20534;-77
2023/08/30 13:40:28;;;;;;;3.13;3.00;;;20.60;99.90;;;;;;10492655;28;20646;-77
2023/08/30 13:45:30;;;;;;;2.90;2.70;;;20.70;99.90;;;;;;10532687;28;20286;-77
2023/08/30 13:50:32;;;;;;;3.10;2.90;;;20.70;99.90;;;;;;10489345;28;20704;-77
2023/08/30 13:55:35;;;;;;;3.30;3.10;;;20.80;99.90;;;;;;10532949;28;20219;-77
2023/08/30 14:00:37;;;;;;;3.70;3.40;;;20.90;99.90;;;;;;10504186;28;20763;-77
2023/08/30 14:05:40;;;;;;;3.20;3.00;;;20.90;99.90;;;;;;10491035;28;20239;-77
2023/08/30 14:10:44;;;;;;;3.17;2.93;;;20.80;99.90;;;;;;10512532;28;20230;-77
2023/08/30 14:15:46;;;;;;;3.57;3.37;;;20.70;99.90;;;;;;10474437;28;20591;-77
2023/08/30 14:20:48;;;;;;;3.77;3.47;;;20.70;99.90;;;;;;10528278;28;20655;-77
2023/08/30 14:25:58;;;;;;;4.43;3.23;;;20.80;99.90;;;;;;10521303;28;20363;-77
2023/08/30 14:31:00;;;;;;;2.67;2.57;;;20.80;99.90;;;;;;10489550;28;20233;-77
2023/08/30 14:36:02;;;;;;;2.73;2.63;;;20.90;99.90;;;;;;10516752;28;20278;-77
2023/08/30 14:41:05;;;;;;;3.17;2.97;;;20.90;99.90;;;;;;10494442;28;20225;-77
2023/08/30 14:46:07;;;;;;;2.90;2.80;;;20.80;99.90;;;;;;10521385;28;20239;-77
2023/08/30 14:51:09;;;;;;;3.20;2.90;;;20.70;99.90;;;;;;10527107;28;20270;-77
2023/08/30 14:56:13;;;;;;;3.60;3.40;;;20.50;99.90;;;;;;10501996;28;20294;-77
2023/08/30 15:01:15;;;;;;;3.80;3.60;;;20.30;99.90;;;;;;10497301;28;20714;-77
2023/08/30 15:06:17;;;;;;;4.67;4.33;;;20.20;99.90;;;;;;10534544;28;20274;-77
2023/08/30 15:11:21;;;;;;;3.87;3.57;;;20.20;99.90;;;;;;10518194;28;20227;-78
2023/08/30 15:16:23;;;;;;;4.07;3.87;;;20.00;99.90;;;;;;10501736;28;20723;-80
2023/08/30 15:21:25;;;;;;;4.77;4.47;;;19.80;99.90;;;;;;10529224;28;20240;-77
2023/08/30 15:26:29;;;;;;;4.40;4.13;;;19.60;99.90;;;;;;10506774;28;20197;-77
2023/08/30 15:31:31;;;;;;;4.60;4.20;;;19.60;99.90;;;;;;10527460;28;20219;-77
2023/08/30 15:36:33;;;;;;;4.77;4.47;;;19.60;99.90;;;;;;10530966;28;20220;-77
2023/08/30 15:41:36;;;;;;;4.30;4.00;;;19.80;99.90;;;;;;10505237;28;20217;-77
2023/08/30 15:46:38;;;;;;;4.13;3.83;;;19.90;99.90;;;;;;10499207;28;20193;-77
2023/08/30 15:51:40;;;;;;;4.50;4.20;;;19.80;99.90;;;;;;10528750;28;20256;-77
2023/08/30 15:56:45;;;;;;;4.50;4.30;;;19.80;99.90;;;;;;10519837;28;20247;-77
2023/08/30 16:01:47;;;;;;;4.93;4.50;;;19.80;99.90;;;;;;10502849;28;20232;-77
2023/08/30 16:06:51;;;;;;;4.37;4.17;;;19.90;99.90;;;;;;10520423;28;20738;-77
2023/08/30 16:11:54;;;;;;;4.33;4.10;;;19.90;99.90;;;;;;10495573;28;20316;-77
2023/08/30 16:16:56;;;;;;;4.00;3.80;;;19.80;99.90;;;;;;10526275;28;20310;-78
2023/08/30 16:21:58;;;;;;;4.50;4.30;;;19.90;99.90;;;;;;10531290;28;20308;-77
2023/08/30 16:27:02;;;;;;;4.20;3.87;;;19.80;99.90;;;;;;10503664;28;20679;-77
2023/08/30 16:32:05;;;;;;;4.40;4.10;;;19.70;99.90;;;;;;10510369;28;20676;-77
2023/08/30 16:37:07;;;;;;;4.33;4.03;;;19.70;99.90;;;;;;10524656;28;20220;-77
2023/08/30 16:42:10;;;;;;;4.17;3.97;;;19.70;99.90;;;;;;10501203;28;20228;-78
2023/08/30 16:47:12;;;;;;;3.90;3.70;;;19.70;99.90;;;;;;10493384;28;20201;-77
2023/08/30 16:52:14;;;;;;;6.23;5.80;;;19.70;99.90;;;;;;10496075;28;20910;-78
2023/08/30 16:57:18;;;;;;;5.60;5.10;;;19.60;99.90;;;;;;10497212;28;20248;-79
2023/08/30 17:02:20;;;;;;;6.23;5.70;;;19.60;99.90;;;;;;10484780;28;20205;-77
2023/08/30 17:07:22;;;;;;;8.33;6.20;;;19.50;99.90;;;;;;10489076;28;20683;-77
2023/08/30 17:12:25;;;;;;;5.80;5.30;;;19.50;99.90;;;;;;10509192;28;20575;-77
2023/08/30 17:17:27;;;;;;;5.93;5.43;;;19.50;99.90;;;;;;10489393;28;20229;-77
2023/08/30 17:22:29;;;;;;;4.90;4.60;;;19.30;99.90;;;;;;10487406;28;20736;-77
2023/08/30 17:33:00;;;;;;;5.10;4.80;;;19.20;99.90;;;;;;10435615;28;20202;-78
2023/08/30 17:38:02;;;;;;;5.93;5.53;;;19.00;99.90;;;;;;10443410;28;20230;-77
2023/08/30 17:43:07;;;;;;;8.57;7.23;;;18.90;99.90;;;;;;10449046;28;20630;-77
2023/08/30 17:48:10;;;;;;;5.00;4.70;;;18.90;99.90;;;;;;10422212;28;20241;-77
2023/08/30 17:53:13;;;;;;;5.93;5.53;;;18.80;99.90;;;;;;10443041;28;20201;-78
2023/08/30 17:58:15;;;;;;;5.60;5.30;;;18.70;99.90;;;;;;10439261;28;20336;-77
2023/08/30 18:03:18;;;;;;;5.63;5.30;;;18.70;99.90;;;;;;10439342;28;20210;-78
2023/08/30 18:08:20;;;;;;;5.87;5.37;;;18.60;99.90;;;;;;10448936;28;20229;-79
2023/08/30 18:13:23;;;;;;;6.80;6.17;;;18.50;99.90;;;;;;10442771;28;20194;-78
2023/08/30 18:18:27;;;;;;;4.77;4.47;;;18.50;99.90;;;;;;10452975;28;20247;-79
2023/08/30 18:23:29;;;;;;;5.90;5.30;;;18.40;99.90;;;;;;10452252;28;20205;-77
2023/08/30 18:28:32;;;;;;;4.97;4.67;;;18.30;99.90;;;;;;10449034;28;20280;-76
2023/08/30 18:33:35;;;;;;;9.33;8.60;;;18.30;99.90;;;;;;10449178;28;20271;-78
2023/08/30 18:38:38;;;;;;;6.30;5.90;;;18.20;99.90;;;;;;10458007;28;20733;-78
2023/08/30 18:43:42;;;;;;;5.77;5.37;;;18.10;99.90;;;;;;10449442;28;20289;-78
2023/08/30 18:48:46;;;;;;;5.43;4.97;;;18.00;99.90;;;;;;10459538;28;20320;-79
2023/08/30 18:53:48;;;;;;;5.90;5.50;;;18.00;99.90;;;;;;10449827;28;20209;-79
2023/08/30 18:58:50;;;;;;;5.67;5.20;;;17.90;99.90;;;;;;10456562;28;20280;-78
2023/08/30 19:03:53;;;;;;;6.43;5.93;;;17.80;99.90;;;;;;10429401;28;20198;-78
2023/08/30 19:08:55;;;;;;;5.33;5.03;;;17.70;99.90;;;;;;10447901;28;20263;-78
2023/08/30 19:13:57;;;;;;;6.10;5.70;;;17.70;99.90;;;;;;10453125;28;20608;-77
2023/08/30 19:19:01;;;;;;;5.30;5.00;;;17.70;99.90;;;;;;10451304;28;20226;-79
2023/08/30 19:24:04;;;;;;;5.43;5.13;;;17.70;99.90;;;;;;10426662;28;20289;-78
2023/08/30 19:29:06;;;;;;;4.87;4.50;;;17.70;99.90;;;;;;10450863;28;20242;-78
2023/08/30 19:34:10;;;;;;;5.07;4.70;;;17.70;99.90;;;;;;10438632;28;20209;-79
2023/08/30 19:39:13;;;;;;;5.30;4.90;;;17.70;99.90;;;;;;10436496;28;20226;-79
2023/08/30 19:44:15;;;;;;;5.40;5.00;;;17.80;99.90;;;;;;10442358;28;20236;-79
2023/08/30 19:49:19;;;;;;;5.80;5.40;;;17.80;99.90;;;;;;10451263;28;20340;-80
2023/08/30 19:54:21;;;;;;;5.17;4.87;;;17.90;99.90;;;;;;10442996;28;20208;-78
2023/08/30 19:59:23;;;;;;;5.60;5.30;;;17.90;99.90;;;;;;10447465;28;20229;-78
2023/08/30 20:04:27;;;;;;;6.37;5.20;;;18.00;99.90;;;;;;10454530;28;20206;-77
2023/08/30 20:09:30;;;;;;;7.50;5.37;;;18.10;99.90;;;;;;10452940;28;20719;-78
2023/08/30 20:14:32;;;;;;;6.40;6.00;;;18.20;99.90;;;;;;10431072;28;20212;-80
2023/08/30 20:19:35;;;;;;;5.70;5.30;;;18.20;99.90;;;;;;10444826;28;20295;-78
2023/08/30 20:24:37;;;;;;;4.70;4.40;;;18.30;99.90;;;;;;10451917;28;20218;-79
2023/08/30 20:29:39;;;;;;;5.20;4.67;;;18.30;99.90;;;;;;10447379;28;20226;-78
2023/08/30 20:34:44;;;;;;;5.37;4.87;;;18.30;99.90;;;;;;10453517;28;20616;-79
2023/08/30 20:39:46;;;;;;;4.70;4.40;;;18.30;99.90;;;;;;10456822;28;20299;-79
2023/08/30 20:44:49;;;;;;;5.23;4.83;;;18.40;99.90;;;;;;10454165;28;20693;-78
2023/08/30 20:49:53;;;;;;;5.10;4.70;;;18.40;99.90;;;;;;10448933;28;20248;-79
2023/08/30 20:54:57;;;;;;;5.10;4.60;;;18.40;99.90;;;;;;10426231;28;20210;-78
2023/08/30 20:59:59;;;;;;;5.70;5.20;;;18.40;99.90;;;;;;10437187;28;20238;-78
2023/08/30 21:05:04;;;;;;;4.60;4.30;;;18.30;99.90;;;;;;10448591;28;20206;-77
2023/08/30 21:10:07;;;;;;;5.60;5.10;;;18.30;99.90;;;;;;10449564;28;20217;-79
2023/08/30 21:15:10;;;;;;;5.70;5.10;;;18.30;99.90;;;;;;10448833;28;20229;-78
2023/08/30 21:20:13;;;;;;;4.93;4.63;;;18.30;99.90;;;;;;10417908;28;20256;-79
2023/08/30 21:25:15;;;;;;;5.50;5.00;;;18.20;99.90;;;;;;10449342;28;20202;-78
2023/08/30 21:30:18;;;;;;;5.50;5.10;;;18.20;99.90;;;;;;10445766;28;20292;-78
2023/08/30 21:35:21;;;;;;;5.80;5.23;;;18.20;99.90;;;;;;10433275;28;20229;-79
2023/08/30 21:40:23;;;;;;;5.90;5.30;;;18.10;99.90;;;;;;10428489;28;20257;-79
2023/08/30 21:45:25;;;;;;;5.40;5.00;;;18.10;99.90;;;;;;10442117;28;20205;-79
2023/08/30 21:50:29;;;;;;;5.00;4.70;;;18.00;99.90;;;;;;10454798;28;20222;-79
2023/08/30 21:55:31;;;;;;;5.30;4.90;;;17.80;99.90;;;;;;10441736;28;20203;-79
2023/08/30 22:00:33;;;;;;;6.20;5.80;;;17.60;99.90;;;;;;10429539;28;20279;-79
2023/08/30 22:05:36;;;;;;;6.10;5.60;;;17.50;99.90;;;;;;10433962;28;20223;-78
2023/08/30 22:10:38;;;;;;;5.80;5.40;;;17.40;99.90;;;;;;10456088;28;20661;-78
2023/08/30 22:15:40;;;;;;;5.80;5.50;;;17.30;99.90;;;;;;10442428;28;20202;-78
2023/08/30 22:20:44;;;;;;;6.50;6.10;;;17.10;99.90;;;;;;10432510;28;20238;-76
2023/08/30 22:25:46;;;;;;;6.63;6.33;;;16.90;99.90;;;;;;10415868;28;20478;-79
2023/08/30 22:30:48;;;;;;;6.50;6.13;;;16.90;99.90;;;;;;10447639;28;20247;-80
2023/08/30 22:35:52;;;;;;;6.33;5.93;;;16.80;99.90;;;;;;10444381;28;20195;-79
2023/08/30 22:40:54;;;;;;;7.00;6.60;;;16.80;99.90;;;;;;10446707;28;20230;-79
2023/08/30 22:45:59;;;;;;;5.80;5.50;;;16.70;99.90;;;;;;10448653;28;20205;-78
2023/08/30 22:51:04;;;;;;;5.57;5.27;;;16.70;99.90;;;;;;10442407;28;20219;-79
2023/08/30 22:56:08;;;;;;;5.10;4.90;;;16.70;99.90;;;;;;10426544;28;20792;-77
2023/08/30 23:01:11;;;;;;;5.57;5.27;;;16.60;99.90;;;;;;10443298;28;20227;-79
2023/08/30 23:06:15;;;;;;;5.80;5.50;;;16.60;99.90;;;;;;10419795;28;20233;-78
2023/08/30 23:11:18;;;;;;;5.57;5.33;;;16.60;99.90;;;;;;10440958;28;20230;-78
2023/08/30 23:16:20;;;;;;;6.20;5.90;;;16.60;99.90;;;;;;10450226;28;20210;-77
2023/08/30 23:21:24;;;;;;;6.20;5.90;;;16.50;99.90;;;;;;10450370;28;20253;-78
2023/08/30 23:26:26;;;;;;;6.40;6.10;;;16.40;99.90;;;;;;10428452;28;20630;-78
2023/08/30 23:31:32;;;;;;;6.40;6.00;;;16.30;99.90;;;;;;10547547;22;20274;-79
2023/08/30 23:36:54;;;;;;;5.70;5.40;;;16.20;99.90;;;;;;10545982;28;20224;-79
2023/08/30 23:42:01;;;;;;;5.80;5.40;;;16.20;99.90;;;;;;10538432;28;20669;-79
2023/08/30 23:47:09;;;;;;;5.27;4.87;;;16.20;99.90;;;;;;10542340;28;20205;-79
2023/08/30 23:52:19;;;;;;;5.30;5.00;;;16.10;99.90;;;;;;10544268;28;20224;-79
2023/08/30 23:57:34;;;;;;;6.17;5.87;;;16.20;99.90;;;;;;10544004;28;20251;-78
